Time;durP1;ratioP1;P1;durP2;ratioP2;P2;SDS_P1;SDS_P2;PMS_P1;PMS_P2;Temp;Humidity;BMP_temperature;BMP_pressure;BME280_temperature;BME280_humidity;BME280_pressure;Samples;Min_cycle;Max_cycle;Signal;HPM_P1;HPM_P2
2024/03/22 00:01:50;;;;;;;64.40;31.70;;;9.90;80.50;;;;;;5096525;28;20028;-69
2024/03/22 00:04:16;;;;;;;60.63;32.13;;;9.80;83.00;;;;;;5096397;28;20097;-69
2024/03/22 00:06:43;;;;;;;60.65;32.40;;;9.80;86.70;;;;;;5096337;28;20106;-69
2024/03/22 00:09:10;;;;;;;66.35;33.25;;;9.80;90.00;;;;;;5095135;28;20020;-69
2024/03/22 00:11:35;;;;;;;65.93;33.75;;;9.80;93.30;;;;;;5094900;28;20085;-68
2024/03/22 00:14:02;;;;;;;66.22;33.03;;;9.80;95.20;;;;;;5096414;28;20023;-69
2024/03/22 00:16:28;;;;;;;70.05;33.83;;;9.70;97.50;;;;;;5095083;28;20020;-69
2024/03/22 00:18:53;;;;;;;70.13;34.88;;;9.70;99.90;;;;;;5096413;28;20093;-68
2024/03/22 00:21:19;;;;;;;65.57;34.90;;;9.70;99.90;;;;;;5096112;28;20046;-68
2024/03/22 00:23:45;;;;;;;67.68;34.75;;;9.80;99.90;;;;;;5096146;28;20028;-69
2024/03/22 00:26:11;;;;;;;76.60;36.53;;;9.80;99.90;;;;;;5095989;28;20024;-69
2024/03/22 00:28:36;;;;;;;78.43;38.55;;;9.80;99.90;;;;;;5095947;28;20520;-69
2024/03/22 00:31:02;;;;;;;78.53;37.22;;;9.90;99.90;;;;;;5095917;28;20030;-69
2024/03/22 00:33:27;;;;;;;83.25;38.85;;;9.90;99.90;;;;;;5095842;28;20101;-68
2024/03/22 00:35:53;;;;;;;77.05;37.20;;;9.90;99.90;;;;;;5095667;28;20050;-68
2024/03/22 00:38:19;;;;;;;80.60;39.13;;;9.90;99.90;;;;;;5095720;28;20107;-69
2024/03/22 00:40:44;;;;;;;76.25;37.40;;;10.00;99.90;;;;;;5095523;28;20055;-69
2024/03/22 00:43:10;;;;;;;84.43;39.92;;;10.10;99.90;;;;;;5095443;28;20030;-69
2024/03/22 00:45:35;;;;;;;85.60;37.65;;;10.10;99.90;;;;;;5095671;28;20452;-68
2024/03/22 00:48:01;;;;;;;91.70;38.35;;;10.10;99.90;;;;;;5094915;28;20030;-69
2024/03/22 00:50:27;;;;;;;83.82;38.00;;;10.10;99.90;;;;;;5095529;28;20054;-69
2024/03/22 00:52:56;;;;;;;76.68;35.38;;;10.10;99.90;;;;;;5095570;28;20489;-68
2024/03/22 00:55:22;;;;;;;68.60;32.25;;;10.10;99.90;;;;;;5095370;28;20024;-69
2024/03/22 00:57:48;;;;;;;69.68;33.38;;;10.10;99.90;;;;;;5095403;28;20107;-68
2024/03/22 01:00:15;;;;;;;78.47;34.80;;;10.10;99.10;;;;;;5095329;28;20056;-69
2024/03/22 01:02:41;;;;;;;78.55;35.20;;;10.20;97.70;;;;;;5095300;28;20024;-69
2024/03/22 01:05:07;;;;;;;71.57;34.40;;;10.10;96.30;;;;;;5095188;28;20024;-69
2024/03/22 01:07:33;;;;;;;72.68;33.53;;;10.10;96.60;;;;;;5095373;28;20494;-69
2024/03/22 01:09:58;;;;;;;68.20;33.17;;;10.10;96.70;;;;;;5095075;28;20102;-69
2024/03/22 01:12:24;;;;;;;70.32;34.47;;;10.10;96.40;;;;;;5095191;28;20070;-69
2024/03/22 01:14:49;;;;;;;68.30;33.10;;;10.20;94.80;;;;;;5095342;28;20059;-69
2024/03/22 01:17:15;;;;;;;74.32;35.08;;;10.10;94.90;;;;;;5094967;28;20028;-69
2024/03/22 01:19:40;;;;;;;71.93;32.22;;;10.10;94.50;;;;;;5095152;28;20127;-69
2024/03/22 01:22:06;;;;;;;75.45;32.42;;;10.20;93.90;;;;;;5094987;28;20115;-69
2024/03/22 01:24:32;;;;;;;71.57;32.83;;;10.20;92.20;;;;;;5095028;28;20051;-69
2024/03/22 01:26:57;;;;;;;73.32;32.67;;;10.20;91.80;;;;;;5094881;28;20021;-69
2024/03/22 01:29:23;;;;;;;69.50;33.15;;;10.20;91.90;;;;;;5094568;28;20114;-68
2024/03/22 01:31:48;;;;;;;75.30;33.05;;;10.10;92.80;;;;;;5094718;28;20031;-68
2024/03/22 01:34:14;;;;;;;76.15;34.35;;;10.20;92.40;;;;;;5094845;28;20107;-69
2024/03/22 01:36:40;;;;;;;69.22;32.80;;;10.20;92.70;;;;;;5094837;28;20020;-69
2024/03/22 01:39:06;;;;;;;74.40;31.63;;;10.20;93.30;;;;;;5094353;28;20529;-69
2024/03/22 01:41:31;;;;;;;70.53;33.00;;;10.20;93.30;;;;;;5094007;28;20042;-68
2024/03/22 01:43:58;;;;;;;70.70;31.92;;;10.20;92.30;;;;;;5094576;28;20066;-68
2024/03/22 01:46:24;;;;;;;69.93;31.65;;;10.20;92.80;;;;;;5094304;28;20482;-69
2024/03/22 01:48:50;;;;;;;67.78;31.30;;;10.20;91.40;;;;;;5094596;28;20111;-68
2024/03/22 01:51:16;;;;;;;63.28;30.23;;;10.20;92.20;;;;;;5094484;28;20485;-68
2024/03/22 01:53:42;;;;;;;70.57;31.48;;;10.20;90.60;;;;;;5094209;28;20024;-69
2024/03/22 01:56:08;;;;;;;63.58;30.20;;;10.20;90.50;;;;;;5094243;28;20223;-68
2024/03/22 01:58:33;;;;;;;66.28;30.98;;;10.20;90.40;;;;;;5093449;28;20390;-69
2024/03/22 02:00:59;;;;;;;71.38;31.08;;;10.20;92.10;;;;;;5094244;28;20454;-69
2024/03/22 02:03:24;;;;;;;68.38;30.92;;;10.30;91.90;;;;;;5093891;28;20028;-68
2024/03/22 02:05:50;;;;;;;69.82;31.67;;;10.30;90.60;;;;;;5093959;28;20024;-69
2024/03/22 02:08:16;;;;;;;70.47;30.92;;;10.30;91.20;;;;;;5094022;28;20016;-68
2024/03/22 02:10:42;;;;;;;65.85;31.23;;;10.30;92.40;;;;;;5094017;28;20081;-69
2024/03/22 02:13:08;;;;;;;72.88;31.90;;;10.20;92.00;;;;;;5094204;28;20118;-69
2024/03/22 02:15:33;;;;;;;67.40;32.42;;;10.30;93.10;;;;;;5094119;28;20074;-68
2024/03/22 02:17:59;;;;;;;68.25;31.60;;;10.30;95.40;;;;;;5093925;28;20459;-69
2024/03/22 02:20:25;;;;;;;69.10;31.55;;;10.30;96.20;;;;;;5093955;28;20099;-69
2024/03/22 02:22:51;;;;;;;67.47;30.92;;;10.30;96.90;;;;;;5093829;28;20034;-69
2024/03/22 02:25:16;;;;;;;64.55;30.00;;;10.30;99.10;;;;;;5093716;28;20098;-69
2024/03/22 02:27:43;;;;;;;68.97;30.50;;;10.30;98.90;;;;;;5093681;28;20028;-68
2024/03/22 02:30:08;;;;;;;69.82;32.40;;;10.30;99.90;;;;;;5093704;28;20099;-68
2024/03/22 02:32:34;;;;;;;66.50;30.90;;;10.40;99.90;;;;;;5093849;28;20112;-68
2024/03/22 02:34:59;;;;;;;70.20;31.33;;;10.40;99.90;;;;;;5093633;28;20027;-69
2024/03/22 02:37:25;;;;;;;67.47;30.15;;;10.40;99.90;;;;;;5093621;28;20032;-69
2024/03/22 02:39:50;;;;;;;63.72;29.98;;;10.40;99.90;;;;;;5093550;28;20036;-68
2024/03/22 02:42:16;;;;;;;64.30;29.80;;;10.50;99.90;;;;;;5093429;28;20119;-69
2024/03/22 02:44:43;;;;;;;64.50;31.48;;;10.40;99.90;;;;;;5093577;28;20446;-69
2024/03/22 02:47:10;;;;;;;63.58;29.75;;;10.40;99.90;;;;;;5093476;28;20016;-69
2024/03/22 02:49:36;;;;;;;64.43;29.23;;;10.40;99.90;;;;;;5093494;28;20027;-69
2024/03/22 02:52:01;;;;;;;63.88;29.88;;;10.40;99.90;;;;;;5093364;28;20470;-69
2024/03/22 02:54:27;;;;;;;63.88;28.98;;;10.40;99.90;;;;;;5093411;28;20028;-69
2024/03/22 02:56:52;;;;;;;64.15;31.73;;;10.50;99.90;;;;;;5093593;28;20024;-69
2024/03/22 02:59:18;;;;;;;62.83;29.60;;;10.50;99.90;;;;;;5093493;28;20534;-69
2024/03/22 03:01:43;;;;;;;64.18;29.55;;;10.50;99.90;;;;;;5093015;28;20059;-68
2024/03/22 03:04:09;;;;;;;64.07;30.92;;;10.50;99.90;;;;;;5093226;28;20027;-69
2024/03/22 03:06:34;;;;;;;68.18;31.38;;;10.50;99.90;;;;;;5093257;28;20405;-68
2024/03/22 03:09:00;;;;;;;67.05;30.60;;;10.60;99.90;;;;;;5093503;28;20035;-69
2024/03/22 03:11:25;;;;;;;67.00;31.42;;;10.60;99.90;;;;;;5097082;28;20024;-69
2024/03/22 03:13:51;;;;;;;72.00;33.85;;;10.60;99.90;;;;;;5097680;28;20393;-69
2024/03/22 03:16:17;;;;;;;71.00;31.63;;;10.60;99.90;;;;;;5097323;28;20042;-69
2024/03/22 03:18:42;;;;;;;66.28;32.05;;;10.50;99.90;;;;;;5097296;28;20028;-68
2024/03/22 03:21:08;;;;;;;66.82;30.88;;;10.60;99.90;;;;;;5097298;28;20023;-68
2024/03/22 03:23:33;;;;;;;64.70;29.65;;;10.50;99.90;;;;;;5097169;28;20428;-69
2024/03/22 03:25:59;;;;;;;63.58;28.77;;;10.50;99.90;;;;;;5097161;28;20397;-68
2024/03/22 03:28:26;;;;;;;67.38;30.25;;;10.60;99.90;;;;;;5096957;28;20024;-69
2024/03/22 03:30:51;;;;;;;63.15;29.88;;;10.60;99.90;;;;;;5097442;28;20051;-68
2024/03/22 03:33:17;;;;;;;63.67;29.10;;;10.60;99.90;;;;;;5097045;28;20024;-68
2024/03/22 03:35:46;;;;;;;61.22;27.98;;;10.60;99.90;;;;;;5096751;28;20111;-68
2024/03/22 03:38:12;;;;;;;64.63;29.60;;;10.70;99.90;;;;;;5096939;28;20024;-68
2024/03/22 03:40:37;;;;;;;60.15;28.35;;;10.70;99.90;;;;;;5096806;28;20048;-69
2024/03/22 03:43:03;;;;;;;59.50;27.95;;;10.80;99.90;;;;;;5096788;28;20379;-68
2024/03/22 03:45:28;;;;;;;63.55;30.23;;;10.90;99.90;;;;;;5097093;28;20032;-68
2024/03/22 03:47:54;;;;;;;61.42;29.02;;;10.90;99.90;;;;;;5097065;28;20020;-68
2024/03/22 03:50:19;;;;;;;55.63;27.42;;;11.00;99.90;;;;;;5096773;28;20379;-68
2024/03/22 03:52:45;;;;;;;57.15;27.02;;;11.00;99.90;;;;;;5096842;28;20036;-68
2024/03/22 03:55:10;;;;;;;60.33;28.20;;;11.00;99.90;;;;;;5096792;28;20063;-68
2024/03/22 03:57:36;;;;;;;60.33;28.35;;;11.00;99.90;;;;;;5096801;28;20110;-68
2024/03/22 04:00:02;;;;;;;55.92;28.33;;;11.10;99.90;;;;;;5096547;28;20028;-68
2024/03/22 04:02:28;;;;;;;66.38;28.65;;;11.10;99.90;;;;;;5096318;28;20028;-68
2024/03/22 04:04:53;;;;;;;55.22;26.25;;;11.00;99.10;;;;;;5096777;28;20028;-68
2024/03/22 04:07:20;;;;;;;55.50;26.60;;;11.00;99.60;;;;;;5096401;28;20027;-68
2024/03/22 04:09:46;;;;;;;60.33;29.20;;;11.00;99.90;;;;;;5096588;28;20383;-67
2024/03/22 04:12:12;;;;;;;62.25;27.48;;;10.90;99.90;;;;;;5096302;28;20031;-68
2024/03/22 04:14:37;;;;;;;57.58;26.45;;;10.90;99.90;;;;;;5095159;28;20024;-68
2024/03/22 04:17:03;;;;;;;60.72;26.25;;;10.90;99.90;;;;;;5096221;28;20051;-69
2024/03/22 04:19:28;;;;;;;61.63;28.25;;;10.90;99.90;;;;;;5096480;28;20035;-68
2024/03/22 04:21:54;;;;;;;58.88;27.23;;;10.90;99.90;;;;;;5094934;28;20077;-69
2024/03/22 04:24:20;;;;;;;62.53;28.55;;;10.90;99.90;;;;;;5095809;28;20026;-68
2024/03/22 04:26:45;;;;;;;56.10;27.10;;;10.90;99.90;;;;;;5096029;28;20158;-68
2024/03/22 04:29:11;;;;;;;61.90;28.15;;;11.00;99.90;;;;;;5095966;28;20055;-69
2024/03/22 04:31:36;;;;;;;57.95;26.17;;;10.90;99.90;;;;;;5096142;28;20023;-68
2024/03/22 04:34:02;;;;;;;59.75;27.15;;;10.90;99.90;;;;;;5095915;28;20028;-69
2024/03/22 04:36:28;;;;;;;58.28;27.58;;;10.90;99.90;;;;;;5095894;28;20540;-69
2024/03/22 04:38:53;;;;;;;56.63;26.38;;;10.80;99.90;;;;;;5095839;28;20032;-69
2024/03/22 04:41:19;;;;;;;59.70;28.10;;;10.80;99.90;;;;;;5095449;28;20134;-69
2024/03/22 04:43:44;;;;;;;60.10;27.98;;;10.80;99.90;;;;;;5095516;28;20028;-69
2024/03/22 04:46:10;;;;;;;59.65;28.08;;;10.80;99.90;;;;;;5095588;28;20020;-68
2024/03/22 04:48:36;;;;;;;59.88;27.75;;;10.70;99.90;;;;;;5095639;28;20064;-69
2024/03/22 04:51:01;;;;;;;64.18;29.90;;;10.80;99.90;;;;;;5095363;28;20366;-69
2024/03/22 04:53:27;;;;;;;63.70;28.52;;;10.80;99.90;;;;;;5095832;28;20477;-68
2024/03/22 04:55:53;;;;;;;58.45;28.52;;;10.80;99.90;;;;;;5095467;28;20032;-69
2024/03/22 04:58:20;;;;;;;56.00;28.58;;;10.80;99.90;;;;;;5095416;28;20031;-68
2024/03/22 05:00:47;;;;;;;54.05;28.10;;;10.80;99.90;;;;;;5095397;28;20478;-69
2024/03/22 05:03:13;;;;;;;59.25;28.45;;;10.80;99.90;;;;;;5095292;28;20024;-68
2024/03/22 05:05:39;;;;;;;60.42;30.08;;;10.80;99.90;;;;;;5095320;28;20436;-69
2024/03/22 05:08:05;;;;;;;60.15;29.77;;;10.90;99.90;;;;;;5095433;28;20020;-69
2024/03/22 05:10:31;;;;;;;56.33;28.70;;;10.90;99.90;;;;;;5095438;28;20494;-68
2024/03/22 05:12:57;;;;;;;57.08;28.92;;;10.90;99.90;;;;;;5095462;28;20034;-69
2024/03/22 05:15:25;;;;;;;57.72;27.58;;;10.90;99.90;;;;;;5095236;28;20031;-68
2024/03/22 05:17:51;;;;;;;59.00;27.73;;;10.90;99.90;;;;;;5095238;28;20024;-69
2024/03/22 05:20:17;;;;;;;61.47;28.00;;;10.90;99.90;;;;;;5094958;28;20078;-69
2024/03/22 05:22:43;;;;;;;55.47;28.38;;;10.90;99.90;;;;;;5094699;28;20477;-68
2024/03/22 05:25:09;;;;;;;58.60;28.30;;;10.90;99.90;;;;;;5093521;28;20030;-69
2024/03/22 05:27:35;;;;;;;55.22;28.08;;;11.00;99.90;;;;;;5094914;28;20070;-68
2024/03/22 05:30:01;;;;;;;57.28;27.80;;;11.00;99.90;;;;;;5094884;28;20431;-68
2024/03/22 05:32:26;;;;;;;53.22;27.33;;;11.00;99.90;;;;;;5094691;28;20085;-69
2024/03/22 05:34:53;;;;;;;61.58;27.35;;;11.00;99.90;;;;;;5094583;28;20032;-69
2024/03/22 05:37:18;;;;;;;56.40;27.83;;;11.00;99.90;;;;;;5094415;28;20115;-69
2024/03/22 05:39:44;;;;;;;51.80;26.05;;;11.10;99.90;;;;;;5094803;28;20494;-69
2024/03/22 05:42:10;;;;;;;57.17;25.80;;;11.10;99.90;;;;;;5094256;28;20056;-69
2024/03/22 05:44:35;;;;;;;50.80;26.35;;;11.10;99.90;;;;;;5094565;28;20030;-68
2024/03/22 05:47:01;;;;;;;51.13;26.67;;;11.10;99.90;;;;;;5094909;28;20492;-68
2024/03/22 05:49:26;;;;;;;46.90;24.50;;;11.10;99.90;;;;;;5094408;28;20490;-69
2024/03/22 05:51:52;;;;;;;52.28;25.50;;;11.20;99.90;;;;;;5094349;28;20028;-68
2024/03/22 05:54:18;;;;;;;50.83;25.92;;;11.30;99.90;;;;;;5094344;28;20505;-68
2024/03/22 05:56:43;;;;;;;52.83;25.65;;;11.30;99.90;;;;;;5094238;28;20074;-69
2024/03/22 05:59:10;;;;;;;51.35;25.77;;;11.30;99.90;;;;;;5094320;28;20398;-69
2024/03/22 06:01:38;;;;;;;49.38;25.15;;;11.40;99.30;;;;;;5094288;28;20069;-69
2024/03/22 06:04:04;;;;;;;52.00;26.20;;;11.40;97.10;;;;;;5094058;28;20030;-69
2024/03/22 06:06:29;;;;;;;48.53;25.45;;;11.50;96.30;;;;;;5094108;28;20024;-69
2024/03/22 06:08:56;;;;;;;46.08;25.63;;;11.50;91.60;;;;;;5094252;28;20035;-69
2024/03/22 06:11:22;;;;;;;47.63;25.48;;;11.60;90.00;;;;;;5094001;28;20111;-69
2024/03/22 06:13:48;;;;;;;46.83;25.73;;;11.60;84.40;;;;;;5093821;28;20060;-68
2024/03/22 06:16:14;;;;;;;56.92;26.58;;;11.70;78.20;;;;;;5094140;28;20063;-69
2024/03/22 06:18:40;;;;;;;50.55;25.60;;;11.70;76.30;;;;;;5093941;28;20032;-69
2024/03/22 06:21:06;;;;;;;48.42;25.38;;;11.70;66.70;;;;;;5094016;28;20032;-69
2024/03/22 06:23:32;;;;;;;44.63;24.17;;;11.80;59.00;;;;;;5093764;28;20024;-69
2024/03/22 06:25:58;;;;;;;45.00;23.63;;;11.80;58.90;;;;;;5093892;28;20107;-69
2024/03/22 06:28:27;;;;;;;44.63;24.40;;;11.90;51.50;;;;;;5093788;28;20505;-69
2024/03/22 06:30:53;;;;;;;50.50;24.02;;;11.90;46.20;;;;;;5093725;28;20020;-68
2024/03/22 06:33:19;;;;;;;45.75;24.02;;;11.90;41.70;;;;;;5093647;28;20513;-68
2024/03/22 06:35:46;;;;;;;43.15;22.90;;;12.00;35.50;;;;;;5093841;28;20032;-68
2024/03/22 06:38:12;;;;;;;44.47;23.73;;;12.00;29.90;;;;;;5093855;28;20035;-67
2024/03/22 06:40:37;;;;;;;51.45;27.50;;;12.00;29.90;;;;;;5093740;28;20401;-68
2024/03/22 06:43:03;;;;;;;43.05;22.70;;;12.00;25.00;;;;;;5093686;28;20024;-68
2024/03/22 06:45:29;;;;;;;44.08;23.77;;;12.00;26.20;;;;;;5092856;28;20473;-68
2024/03/22 06:47:54;;;;;;;45.15;23.77;;;12.10;19.10;;;;;;5093378;28;20062;-68
2024/03/22 06:50:24;;;;;;;45.60;27.42;;;12.10;9.30;;;;;;5093561;28;20020;-68
2024/03/22 06:52:51;;;;;;;45.08;26.60;;;12.20;11.10;;;;;;5093403;28;20524;-68
2024/03/22 06:55:17;;;;;;;41.80;26.20;;;12.20;7.00;;;;;;5093630;28;20035;-68
2024/03/22 06:57:44;;;;;;;34.95;20.25;;;12.20;1.00;;;;;;5093127;28;20429;-68
2024/03/22 07:00:11;;;;;;;33.22;19.15;;;12.30;1.00;;;;;;5093172;28;20038;-68
2024/03/22 07:02:36;;;;;;;37.03;20.42;;;12.30;1.00;;;;;;5093241;28;20032;-68
2024/03/22 07:05:03;;;;;;;41.30;19.00;;;12.30;1.00;;;;;;5093293;28;20103;-68
2024/03/22 07:07:29;;;;;;;33.95;18.67;;;12.40;1.00;;;;;;5075625;28;20032;-68
2024/03/22 07:09:56;;;;;;;31.23;18.30;;;12.40;1.00;;;;;;5073326;28;20386;-68
2024/03/22 07:12:22;;;;;;;34.35;17.85;;;12.50;1.00;;;;;;5073183;28;20419;-70
2024/03/22 07:14:47;;;;;;;31.52;18.15;;;12.50;1.00;;;;;;5073124;28;20033;-70
2024/03/22 07:17:13;;;;;;;31.05;18.30;;;12.60;99.90;;;;;;5072992;28;20442;-70
2024/03/22 07:19:39;;;;;;;32.83;16.85;;;12.70;99.90;;;;;;5072883;28;20161;-70
2024/03/22 07:22:04;;;;;;;32.33;17.58;;;12.70;1.00;;;;;;5073110;28;20155;-70
2024/03/22 07:24:30;;;;;;;31.45;16.92;;;12.80;64.40;;;;;;5072472;28;20021;-70
2024/03/22 07:26:55;;;;;;;30.30;16.77;;;12.80;99.90;;;;;;5073095;28;20166;-70
2024/03/22 07:29:21;;;;;;;29.55;15.80;;;12.80;1.00;;;;;;5072863;28;20036;-70
2024/03/22 07:31:46;;;;;;;26.80;15.55;;;12.90;1.00;;;;;;5072271;28;20116;-70
2024/03/22 07:34:12;;;;;;;28.27;15.90;;;12.90;1.00;;;;;;5072230;28;20121;-69
2024/03/22 07:36:39;;;;;;;28.63;15.80;;;12.80;99.90;;;;;;5071773;28;20071;-70
2024/03/22 07:39:06;;;;;;;27.73;15.77;;;12.80;99.90;;;;;;5072682;28;20036;-70
2024/03/22 07:41:32;;;;;;;33.53;17.35;;;12.90;97.50;;;;;;5072494;28;20128;-70
2024/03/22 07:44:00;;;;;;;34.47;16.45;;;12.90;1.00;;;;;;5072546;28;20517;-70
2024/03/22 07:46:26;;;;;;;29.02;15.90;;;13.00;1.00;;;;;;5072490;28;20066;-70
2024/03/22 07:48:52;;;;;;;28.75;15.35;;;13.00;99.90;;;;;;5072107;28;20024;-70
2024/03/22 07:51:17;;;;;;;27.65;16.02;;;13.00;99.90;;;;;;5072679;28;20024;-70
2024/03/22 07:53:43;;;;;;;27.63;14.90;;;13.10;99.90;;;;;;5072369;28;20032;-70
2024/03/22 07:56:09;;;;;;;29.98;16.92;;;13.10;1.00;;;;;;5073642;28;20032;-70
2024/03/22 07:58:34;;;;;;;26.92;16.63;;;13.20;1.00;;;;;;5076280;28;20020;-70
2024/03/22 08:01:00;;;;;;;31.42;15.70;;;13.30;99.90;;;;;;5075571;28;20033;-70
2024/03/22 08:03:25;;;;;;;34.95;16.02;;;13.30;99.90;;;;;;5076029;28;20028;-70
2024/03/22 08:05:51;;;;;;;26.23;15.15;;;13.40;99.90;;;;;;5075948;28;20035;-70
2024/03/22 08:08:17;;;;;;;26.92;16.13;;;13.40;99.90;;;;;;5075865;28;20146;-70
2024/03/22 08:10:43;;;;;;;26.20;15.77;;;13.50;99.90;;;;;;5076299;28;20363;-70
2024/03/22 08:13:08;;;;;;;26.17;15.45;;;13.60;1.00;;;;;;5075612;28;20033;-70
2024/03/22 08:15:35;;;;;;;26.42;15.00;;;13.60;1.00;;;;;;5075866;28;20115;-70
2024/03/22 08:18:01;;;;;;;31.45;15.90;;;13.50;99.90;;;;;;5076222;28;20078;-70
2024/03/22 08:20:26;;;;;;;25.67;14.52;;;13.60;99.90;;;;;;5075696;28;20028;-70
2024/03/22 08:22:52;;;;;;;30.85;16.50;;;13.70;99.90;;;;;;5075574;28;20039;-70
2024/03/22 08:25:19;;;;;;;25.60;14.98;;;13.80;99.90;;;;;;5075922;28;20479;-70
2024/03/22 08:27:45;;;;;;;28.40;15.13;;;13.90;65.80;;;;;;5075626;28;20112;-70
2024/03/22 08:30:12;;;;;;;24.65;15.15;;;14.00;1.00;;;;;;5075446;28;20382;-69
2024/03/22 08:32:37;;;;;;;27.58;16.17;;;14.00;1.00;;;;;;5074079;28;20563;-70
2024/03/22 08:35:09;;;;;;;24.98;15.10;;;14.10;1.00;;;;;;5074278;28;20032;-70
2024/03/22 08:37:34;;;;;;;25.35;14.65;;;14.10;1.00;;;;;;5074133;28;20387;-70
2024/03/22 08:40:00;;;;;;;27.40;15.95;;;14.20;1.00;;;;;;5073648;28;20036;-70
2024/03/22 08:42:26;;;;;;;27.40;14.80;;;14.20;99.90;;;;;;5074173;28;20435;-70
2024/03/22 08:44:52;;;;;;;26.85;14.68;;;14.20;99.90;;;;;;5074132;28;20020;-71
2024/03/22 08:47:17;;;;;;;25.92;15.70;;;14.00;99.90;;;;;;5077837;28;20028;-70
2024/03/22 08:49:44;;;;;;;27.20;15.18;;;13.80;99.90;;;;;;5073985;28;20017;-70
2024/03/22 08:52:10;;;;;;;28.13;15.75;;;13.70;99.90;;;;;;5074358;28;20371;-70
2024/03/22 08:54:35;;;;;;;25.70;15.25;;;13.70;99.90;;;;;;5073153;28;20029;-70
2024/03/22 08:57:01;;;;;;;26.95;14.70;;;13.70;99.90;;;;;;5090960;28;20032;-70
2024/03/22 08:59:27;;;;;;;25.80;15.13;;;13.70;99.90;;;;;;5095488;28;20028;-70
2024/03/22 09:01:52;;;;;;;28.20;14.75;;;13.70;99.90;;;;;;5078610;28;20417;-70
2024/03/22 09:04:19;;;;;;;30.52;15.20;;;13.70;99.90;;;;;;5074431;28;20482;-71
2024/03/22 09:06:45;;;;;;;26.55;15.18;;;13.70;99.90;;;;;;5074917;28;20028;-70
2024/03/22 09:09:11;;;;;;;26.95;15.05;;;13.80;99.90;;;;;;5074213;28;20073;-70
2024/03/22 09:11:36;;;;;;;27.52;15.02;;;14.10;99.90;;;;;;5075001;28;20027;-70
2024/03/22 09:14:02;;;;;;;23.10;13.85;;;14.20;99.90;;;;;;5075235;28;20028;-70
2024/03/22 09:16:27;;;;;;;28.13;14.73;;;14.30;99.90;;;;;;5075030;28;20529;-70
2024/03/22 09:18:53;;;;;;;21.83;14.02;;;14.50;99.90;;;;;;5074300;28;20068;-70
2024/03/22 09:21:18;;;;;;;25.77;14.02;;;14.60;99.90;;;;;;5074848;28;20478;-70
2024/03/22 09:23:44;;;;;;;24.35;13.77;;;14.60;73.50;;;;;;5074366;28;20036;-70
2024/03/22 09:26:09;;;;;;;24.40;14.70;;;14.40;14.00;;;;;;5074366;28;20077;-70
2024/03/22 09:28:35;;;;;;;22.38;14.45;;;14.50;9.40;;;;;;5073966;28;20021;-70
2024/03/22 09:31:07;;;;;;;27.20;14.88;;;14.40;3.80;;;;;;5074653;28;20043;-70
2024/03/22 09:33:34;;;;;;;28.80;15.40;;;14.50;5.70;;;;;;5074338;28;20029;-71
2024/03/22 09:35:59;;;;;;;26.02;14.18;;;14.50;1.00;;;;;;5074384;28;20047;-70
2024/03/22 09:38:25;;;;;;;25.55;14.13;;;14.60;12.60;;;;;;5074063;28;20414;-70
2024/03/22 09:40:54;;;;;;;25.05;13.45;;;14.60;1.00;;;;;;5074088;28;20044;-70
2024/03/22 09:43:20;;;;;;;28.65;15.30;;;;;;;;;;5074187;28;20056;-70
2024/03/22 09:45:46;;;;;;;26.20;14.25;;;14.70;1.00;;;;;;5074273;28;20037;-71
2024/03/22 09:48:13;;;;;;;22.63;13.70;;;14.80;1.00;;;;;;5074267;28;20048;-70
2024/03/22 09:50:40;;;;;;;24.55;14.00;;;14.80;1.00;;;;;;5074207;28;20032;-70
2024/03/22 09:53:07;;;;;;;26.27;13.52;;;14.90;1.00;;;;;;5074239;28;20372;-70
2024/03/22 09:55:36;;;;;;;26.75;13.88;;;15.00;1.00;;;;;;5073963;28;20021;-71
2024/03/22 09:58:02;;;;;;;20.52;12.40;;;15.20;1.00;;;;;;5073867;28;20544;-70
2024/03/22 10:00:28;;;;;;;26.88;14.10;;;15.30;1.00;;;;;;5074034;28;20474;-70
2024/03/22 10:02:54;;;;;;;26.23;14.60;;;15.00;1.00;;;;;;5073927;28;20082;-70
2024/03/22 10:05:20;;;;;;;24.67;13.48;;;14.70;1.00;;;;;;5074090;28;20024;-70
2024/03/22 10:07:45;;;;;;;25.15;13.07;;;14.70;1.00;;;;;;5073900;28;20036;-69
2024/03/22 10:10:12;;;;;;;21.98;13.20;;;14.90;1.00;;;;;;5073359;28;20038;-69
2024/03/22 10:12:38;;;;;;;19.90;12.45;;;15.00;1.00;;;;;;5073905;28;20153;-70
2024/03/22 10:15:05;;;;;;;20.48;12.40;;;15.00;1.00;;;;;;5073736;28;20107;-70
2024/03/22 10:17:31;;;;;;;22.30;12.95;;;15.10;1.00;;;;;;5073688;28;20037;-70
2024/03/22 10:19:57;;;;;;;20.63;13.45;;;15.20;1.00;;;;;;5072610;28;20032;-70
2024/03/22 10:22:24;;;;;;;21.63;12.68;;;15.10;1.00;;;;;;5073292;28;20154;-71
2024/03/22 10:24:50;;;;;;;21.42;12.93;;;15.00;1.00;;;;;;5073364;28;20482;-72
2024/03/22 10:27:16;;;;;;;23.20;13.07;;;15.00;1.00;;;;;;5073546;28;20021;-70
2024/03/22 10:29:42;;;;;;;21.40;12.95;;;15.20;1.00;;;;;;5073600;28;20035;-70
2024/03/22 10:32:09;;;;;;;24.08;13.55;;;15.60;1.00;;;;;;5073167;28;20021;-70
2024/03/22 10:34:35;;;;;;;22.55;12.75;;;15.80;99.90;;;;;;5073078;28;20028;-70
2024/03/22 10:37:01;;;;;;;24.95;12.93;;;;;;;;;;5073623;28;20035;-70
2024/03/22 10:39:28;;;;;;;20.30;12.57;;;16.50;99.90;;;;;;5073079;28;20030;-71
2024/03/22 10:41:54;;;;;;;22.13;12.75;;;16.80;99.90;;;;;;5073054;28;20494;-70
2024/03/22 10:44:19;;;;;;;21.40;12.77;;;17.00;99.90;;;;;;5073461;28;20035;-71
2024/03/22 10:46:48;;;;;;;19.10;12.60;;;17.40;99.90;;;;;;5073116;28;20428;-70
2024/03/22 10:49:18;;;;;;;21.67;12.35;;;17.00;99.90;;;;;;5073019;28;20036;-70
2024/03/22 10:51:48;;;;;;;21.00;13.60;;;16.70;99.90;;;;;;5073257;28;20028;-70
2024/03/22 10:54:21;;;;;;;25.63;13.93;;;16.50;99.90;;;;;;5073110;28;20115;-70
2024/03/22 10:56:49;;;;;;;21.58;12.93;;;16.50;99.90;;;;;;5073370;28;20052;-70
2024/03/22 10:59:19;;;;;;;18.75;12.88;;;16.10;99.90;;;;;;5073024;28;20151;-70
2024/03/22 11:01:46;;;;;;;22.85;13.10;;;16.20;99.90;;;;;;5073292;28;20032;-70
2024/03/22 11:04:12;;;;;;;24.88;13.45;;;16.10;99.90;;;;;;5072689;28;20474;-70
2024/03/22 11:06:38;;;;;;;22.25;12.80;;;16.00;99.90;;;;;;5072938;28;20031;-70
2024/03/22 11:09:04;;;;;;;19.67;12.20;;;16.10;99.90;;;;;;5072666;28;20024;-70
2024/03/22 11:11:31;;;;;;;18.23;11.93;;;16.20;99.90;;;;;;5073007;28;20055;-70
2024/03/22 11:13:56;;;;;;;22.30;13.00;;;16.00;99.90;;;;;;5072944;28;20024;-70
2024/03/22 11:16:22;;;;;;;25.10;13.57;;;16.00;99.90;;;;;;5073017;28;20036;-70
2024/03/22 11:18:48;;;;;;;22.20;12.45;;;16.00;99.90;;;;;;5073152;28;20029;-70
2024/03/22 11:21:15;;;;;;;25.65;13.18;;;16.10;99.90;;;;;;5072732;28;20017;-70
2024/03/22 11:23:40;;;;;;;22.58;13.77;;;16.20;99.90;;;;;;5072137;28;20060;-70
2024/03/22 11:26:07;;;;;;;22.30;12.88;;;16.30;99.90;;;;;;5072883;28;20047;-70
2024/03/22 11:28:33;;;;;;;21.73;12.73;;;16.20;99.90;;;;;;5072908;28;20027;-70
2024/03/22 11:30:59;;;;;;;21.00;11.18;;;16.10;99.90;;;;;;5073883;28;20103;-70
2024/03/22 11:33:26;;;;;;;23.48;11.32;;;16.30;99.90;;;;;;5076505;28;20024;-71
2024/03/22 11:35:52;;;;;;;20.90;11.20;;;16.10;99.90;;;;;;5075946;28;20107;-70
2024/03/22 11:38:18;;;;;;;16.38;10.77;;;16.10;99.90;;;;;;5076324;28;20107;-70
2024/03/22 11:40:45;;;;;;;20.95;12.35;;;16.10;99.90;;;;;;5076234;28;20053;-71
2024/03/22 11:43:14;;;;;;;21.05;11.05;;;15.90;99.90;;;;;;5076731;28;20494;-71
2024/03/22 11:45:40;;;;;;;20.48;12.02;;;15.90;99.90;;;;;;5076595;28;20101;-71
2024/03/22 11:48:07;;;;;;;21.45;12.80;;;15.90;99.90;;;;;;5075602;28;20112;-71
2024/03/22 11:50:32;;;;;;;24.13;12.50;;;15.80;99.90;;;;;;5076089;28;20033;-71
2024/03/22 11:52:58;;;;;;;19.15;12.70;;;15.60;99.90;;;;;;5076305;28;20526;-71
2024/03/22 11:55:27;;;;;;;22.38;13.45;;;15.60;99.90;;;;;;5076006;28;20390;-71
2024/03/22 11:57:53;;;;;;;22.52;14.57;;;15.40;99.90;;;;;;5075737;28;20367;-71
2024/03/22 12:00:19;;;;;;;27.75;16.48;;;15.20;99.90;;;;;;5076288;28;20035;-71
2024/03/22 12:02:45;;;;;;;30.08;18.33;;;15.10;99.90;;;;;;5076525;28;20033;-70
2024/03/22 12:05:11;;;;;;;30.77;19.02;;;14.90;1.00;;;;;;5076306;28;20070;-71
2024/03/22 12:07:37;;;;;;;29.90;19.90;;;14.90;1.00;;;;;;5075631;28;20020;-70
2024/03/22 12:10:03;;;;;;;26.30;19.08;;;14.90;1.00;;;;;;5076212;28;20025;-70
2024/03/22 12:12:30;;;;;;;29.85;19.75;;;14.90;1.00;;;;;;5075397;28;20024;-71
2024/03/22 12:14:55;;;;;;;27.73;17.75;;;14.80;1.00;;;;;;5075892;28;20037;-71
2024/03/22 12:17:21;;;;;;;26.55;16.30;;;14.70;1.00;;;;;;5076268;28;20116;-71
2024/03/22 12:19:47;;;;;;;29.75;17.48;;;14.60;61.80;;;;;;5076113;28;20029;-71
2024/03/22 12:22:13;;;;;;;25.08;16.30;;;14.50;99.90;;;;;;5075981;28;20028;-71
2024/03/22 12:24:38;;;;;;;22.70;14.65;;;14.40;99.90;;;;;;5076288;28;20075;-71